This is the latest recevied weather packets stored in our database for station/object VE2CSM-13. If no packets are shown the sender has not sent any weather packets the latest 10 day(s).
| Time | Temp. | Humidity | Pressure | Rain* | Wind** | Luminosity | Snow |
|---|---|---|---|---|---|---|---|
| 1777706942 | -2.22° C | 91% | 1023 hPa | 0 mm | - | - | - |
| 1777705984 | -2.22° C | 90% | 1022.9 hPa | 0 mm | - | - | - |
| 1777705022 | -2.22° C | 90% | 1023 hPa | 0 mm | - | - | - |
| 1777704542 | -2.22° C | 90% | 1022.8 hPa | 0 mm | - | - | - |
| 1777704062 | -2.22° C | 90% | 1023 hPa | 0 mm | - | - | - |
| 1777703582 | -2.22° C | 90% | 1022.7 hPa | 0 mm | - | - | - |
| 1777703342 | -2.22° C | 89% | 1022.7 hPa | 0 mm | - | - | - |
| 1777702863 | -1.67° C | 89% | 1022.7 hPa | 0 mm | - | - | - |
| 1777702742 | -1.67° C | 89% | 1022.7 hPa | 0 mm | - | - | - |
| 1777702622 | -1.67° C | 89% | 1022.7 hPa | 0 mm | - | - | - |
| 1777702383 | -1.67° C | 89% | 1022.7 hPa | 0 mm | - | - | - |
| 1777702142 | -1.67° C | 89% | 1022.7 hPa | 0 mm | - | - | - |
| 1777702022 | -1.67° C | 89% | 1022.8 hPa | 0 mm | - | - | - |
| 1777701903 | -1.67° C | 89% | 1022.8 hPa | 0 mm | - | - | - |
| 1777701842 | -1.67° C | 89% | 1022.8 hPa | 0 mm | - | - | - |
| 1777701783 | -1.67° C | 89% | 1022.8 hPa | 0 mm | - | - | - |
| 1777701722 | -1.67° C | 89% | 1022.8 hPa | 0 mm | - | - | - |
| 1777701284 | -1.67° C | 89% | 1022.8 hPa | 0 mm | - | - | - |
| 1777697667 | -1.67° C | 87% | 1022.8 hPa | 0 mm | - | - | - |
| 1777694065 | -0.56° C | 85% | 1022.8 hPa | 0 mm | - | - | - |
| 1777690465 | 0.56° C | 80% | 1022.5 hPa | 0 mm | - | - | - |
| 1777686872 | 1.11° C | 82% | 1022.8 hPa | 0 mm | - | - | - |
| 1777683267 | 2.78° C | 76% | 1022.2 hPa | 0 mm | - | - | - |
| 1777681465 | 4.44° C | 68% | 1022 hPa | 0 mm | - | - | - |
| 1777679666 | 6.11° C | 58% | 1021.6 hPa | 0 mm | - | - | - |
* Rain latest hour (hover to see other rain measurements)
** Current wind speed in m/s (hover to see current wind gust speed)